sensor_id;sensor_type;location;lat;lon;timestamp;temperature;humidity
59311;DHT22;45078;51.654;21.250;2023-03-05T00:00:24;-4.30;99.90
59311;DHT22;45078;51.654;21.250;2023-03-05T00:02:50;-4.30;99.90
59311;DHT22;45078;51.654;21.250;2023-03-05T00:05:16;-4.20;99.90
59311;DHT22;45078;51.654;21.250;2023-03-05T00:07:41;-4.30;99.90
59311;DHT22;45078;51.654;21.250;2023-03-05T00:10:08;-4.30;99.90
59311;DHT22;45078;51.654;21.250;2023-03-05T00:12:34;-4.30;99.90
59311;DHT22;45078;51.654;21.250;2023-03-05T00:14:59;-4.30;99.90
59311;DHT22;45078;51.654;21.250;2023-03-05T00:17:25;-4.30;99.90
59311;DHT22;45078;51.654;21.250;2023-03-05T00:19:51;-4.30;99.90
59311;DHT22;45078;51.654;21.250;2023-03-05T00:22:17;-4.30;99.90
59311;DHT22;45078;51.654;21.250;2023-03-05T00:24:43;-4.40;99.90
59311;DHT22;45078;51.654;21.250;2023-03-05T00:27:08;-4.40;99.90
59311;DHT22;45078;51.654;21.250;2023-03-05T00:29:34;-4.40;99.90
59311;DHT22;45078;51.654;21.250;2023-03-05T00:32:00;-4.40;99.90
59311;DHT22;45078;51.654;21.250;2023-03-05T00:34:26;-4.50;99.90
59311;DHT22;45078;51.654;21.250;2023-03-05T00:36:53;-4.50;99.90
59311;DHT22;45078;51.654;21.250;2023-03-05T00:39:20;-4.50;99.90
59311;DHT22;45078;51.654;21.250;2023-03-05T00:41:46;-4.50;99.90
59311;DHT22;45078;51.654;21.250;2023-03-05T00:44:12;-4.50;99.90
59311;DHT22;45078;51.654;21.250;2023-03-05T00:46:38;-4.40;99.90
59311;DHT22;45078;51.654;21.250;2023-03-05T00:49:04;-4.30;99.90
59311;DHT22;45078;51.654;21.250;2023-03-05T00:51:31;-4.30;99.90
59311;DHT22;45078;51.654;21.250;2023-03-05T00:53:56;-4.40;99.90
59311;DHT22;45078;51.654;21.250;2023-03-05T00:56:23;-4.40;99.90
59311;DHT22;45078;51.654;21.250;2023-03-05T00:58:49;-4.30;99.90
59311;DHT22;45078;51.654;21.250;2023-03-05T01:01:15;-4.30;99.90
59311;DHT22;45078;51.654;21.250;2023-03-05T01:03:40;-4.30;99.90
59311;DHT22;45078;51.654;21.250;2023-03-05T01:06:09;-4.40;99.90
59311;DHT22;45078;51.654;21.250;2023-03-05T01:08:36;-4.30;99.90
59311;DHT22;45078;51.654;21.250;2023-03-05T01:11:03;-4.20;99.90
59311;DHT22;45078;51.654;21.250;2023-03-05T01:13:29;-4.20;99.90
59311;DHT22;45078;51.654;21.250;2023-03-05T01:15:54;-4.20;99.90
59311;DHT22;45078;51.654;21.250;2023-03-05T01:18:20;-4.20;99.90
59311;DHT22;45078;51.654;21.250;2023-03-05T01:20:46;-4.20;99.90
59311;DHT22;45078;51.654;21.250;2023-03-05T01:23:13;-4.00;99.90
59311;DHT22;45078;51.654;21.250;2023-03-05T01:25:39;-4.00;99.90
59311;DHT22;45078;51.654;21.250;2023-03-05T01:28:05;-3.90;99.90
59311;DHT22;45078;51.654;21.250;2023-03-05T01:30:30;-3.90;99.90
59311;DHT22;45078;51.654;21.250;2023-03-05T01:32:56;-3.90;99.90
59311;DHT22;45078;51.654;21.250;2023-03-05T01:35:23;-4.00;99.90
59311;DHT22;45078;51.654;21.250;2023-03-05T01:37:50;-3.90;99.90
59311;DHT22;45078;51.654;21.250;2023-03-05T01:42:46;-4.10;99.90
59311;DHT22;45078;51.654;21.250;2023-03-05T01:45:15;-4.10;99.90
59311;DHT22;45078;51.654;21.250;2023-03-05T01:47:43;-4.20;99.90
59311;DHT22;45078;51.654;21.250;2023-03-05T01:50:18;-4.10;99.90
59311;DHT22;45078;51.654;21.250;2023-03-05T01:52:48;-4.10;99.90
59311;DHT22;45078;51.654;21.250;2023-03-05T01:58:01;-3.90;99.90
59311;DHT22;45078;51.654;21.250;2023-03-05T02:03:14;-4.00;99.90
59311;DHT22;45078;51.654;21.250;2023-03-05T02:05:41;-4.10;99.90
59311;DHT22;45078;51.654;21.250;2023-03-05T02:08:12;-4.10;99.90
59311;DHT22;45078;51.654;21.250;2023-03-05T02:11:00;-4.30;99.90
59311;DHT22;45078;51.654;21.250;2023-03-05T02:13:29;-4.30;99.90
59311;DHT22;45078;51.654;21.250;2023-03-05T02:15:58;-4.40;99.90
59311;DHT22;45078;51.654;21.250;2023-03-05T02:18:24;-4.50;99.90
59311;DHT22;45078;51.654;21.250;2023-03-05T02:23:28;-4.60;99.90
59311;DHT22;45078;51.654;21.250;2023-03-05T02:25:54;-4.70;99.90
59311;DHT22;45078;51.654;21.250;2023-03-05T02:28:42;-4.90;99.90
59311;DHT22;45078;51.654;21.250;2023-03-05T02:31:12;-5.00;99.90
59311;DHT22;45078;51.654;21.250;2023-03-05T02:33:38;-5.00;99.90
59311;DHT22;45078;51.654;21.250;2023-03-05T02:36:04;-5.00;99.90
59311;DHT22;45078;51.654;21.250;2023-03-05T02:38:30;-4.90;99.90
59311;DHT22;45078;51.654;21.250;2023-03-05T02:40:56;-4.90;99.90
59311;DHT22;45078;51.654;21.250;2023-03-05T02:43:22;-5.00;99.90
59311;DHT22;45078;51.654;21.250;2023-03-05T02:45:47;-5.10;99.90
59311;DHT22;45078;51.654;21.250;2023-03-05T02:48:13;-5.10;99.90
59311;DHT22;45078;51.654;21.250;2023-03-05T02:50:40;-5.10;99.90
59311;DHT22;45078;51.654;21.250;2023-03-05T02:53:06;-5.20;99.90
59311;DHT22;45078;51.654;21.250;2023-03-05T02:55:33;-5.20;99.90
59311;DHT22;45078;51.654;21.250;2023-03-05T02:57:59;-5.20;99.90
59311;DHT22;45078;51.654;21.250;2023-03-05T03:00:25;-5.20;99.90
59311;DHT22;45078;51.654;21.250;2023-03-05T03:02:51;-5.20;99.90
59311;DHT22;45078;51.654;21.250;2023-03-05T03:05:17;-5.30;99.90
59311;DHT22;45078;51.654;21.250;2023-03-05T03:07:43;-5.30;99.90
59311;DHT22;45078;51.654;21.250;2023-03-05T03:10:09;-5.30;99.90
59311;DHT22;45078;51.654;21.250;2023-03-05T03:12:40;-5.30;99.90
59311;DHT22;45078;51.654;21.250;2023-03-05T03:15:08;-5.30;99.90
59311;DHT22;45078;51.654;21.250;2023-03-05T03:17:35;-5.20;99.90
59311;DHT22;45078;51.654;21.250;2023-03-05T03:20:05;-5.20;99.90
59311;DHT22;45078;51.654;21.250;2023-03-05T03:22:32;-5.20;99.90
59311;DHT22;45078;51.654;21.250;2023-03-05T03:24:58;-5.30;99.90
59311;DHT22;45078;51.654;21.250;2023-03-05T03:27:24;-5.30;99.90
59311;DHT22;45078;51.654;21.250;2023-03-05T03:29:50;-5.30;99.90
59311;DHT22;45078;51.654;21.250;2023-03-05T03:32:16;-5.30;99.90
59311;DHT22;45078;51.654;21.250;2023-03-05T03:34:42;-5.30;99.90
59311;DHT22;45078;51.654;21.250;2023-03-05T03:37:10;-5.10;99.90
59311;DHT22;45078;51.654;21.250;2023-03-05T03:39:36;-5.00;99.90
59311;DHT22;45078;51.654;21.250;2023-03-05T03:42:02;-4.90;99.90
59311;DHT22;45078;51.654;21.250;2023-03-05T03:44:27;-4.90;99.90
59311;DHT22;45078;51.654;21.250;2023-03-05T03:46:53;-4.80;99.90
59311;DHT22;45078;51.654;21.250;2023-03-05T03:49:21;-4.80;99.90
59311;DHT22;45078;51.654;21.250;2023-03-05T03:51:49;-4.90;99.90
59311;DHT22;45078;51.654;21.250;2023-03-05T03:54:16;-5.00;99.90
59311;DHT22;45078;51.654;21.250;2023-03-05T03:56:43;-5.00;99.90
59311;DHT22;45078;51.654;21.250;2023-03-05T03:59:09;-5.10;99.90
59311;DHT22;45078;51.654;21.250;2023-03-05T04:01:35;-5.20;99.90
59311;DHT22;45078;51.654;21.250;2023-03-05T04:04:01;-5.30;99.90
59311;DHT22;45078;51.654;21.250;2023-03-05T04:06:27;-5.30;99.90
59311;DHT22;45078;51.654;21.250;2023-03-05T04:08:53;-5.30;99.90
59311;DHT22;45078;51.654;21.250;2023-03-05T04:11:19;-5.40;99.90
59311;DHT22;45078;51.654;21.250;2023-03-05T04:13:45;-5.40;99.90
59311;DHT22;45078;51.654;21.250;2023-03-05T04:16:13;-5.50;99.90
59311;DHT22;45078;51.654;21.250;2023-03-05T04:18:39;-5.60;99.90
59311;DHT22;45078;51.654;21.250;2023-03-05T04:21:05;-5.60;99.90
59311;DHT22;45078;51.654;21.250;2023-03-05T04:23:31;-5.70;99.90
59311;DHT22;45078;51.654;21.250;2023-03-05T04:25:57;-5.70;99.90
59311;DHT22;45078;51.654;21.250;2023-03-05T04:28:23;-5.70;99.90
59311;DHT22;45078;51.654;21.250;2023-03-05T04:30:48;-5.70;99.90
59311;DHT22;45078;51.654;21.250;2023-03-05T04:33:14;-5.70;99.90
59311;DHT22;45078;51.654;21.250;2023-03-05T04:35:40;-5.60;99.90
59311;DHT22;45078;51.654;21.250;2023-03-05T04:38:06;-5.60;99.90
59311;DHT22;45078;51.654;21.250;2023-03-05T04:40:32;-5.50;99.90
59311;DHT22;45078;51.654;21.250;2023-03-05T04:42:58;-5.50;99.90
59311;DHT22;45078;51.654;21.250;2023-03-05T04:45:24;-5.40;99.90
59311;DHT22;45078;51.654;21.250;2023-03-05T04:47:50;-5.40;99.90
59311;DHT22;45078;51.654;21.250;2023-03-05T04:50:16;-5.30;99.90
59311;DHT22;45078;51.654;21.250;2023-03-05T04:52:43;-5.30;99.90
59311;DHT22;45078;51.654;21.250;2023-03-05T04:55:10;-5.20;99.90
59311;DHT22;45078;51.654;21.250;2023-03-05T04:57:36;-5.10;99.90
59311;DHT22;45078;51.654;21.250;2023-03-05T05:00:05;-5.10;99.90
59311;DHT22;45078;51.654;21.250;2023-03-05T05:02:32;-5.00;99.90
59311;DHT22;45078;51.654;21.250;2023-03-05T05:04:58;-5.00;99.90
59311;DHT22;45078;51.654;21.250;2023-03-05T05:07:23;-5.00;99.90
59311;DHT22;45078;51.654;21.250;2023-03-05T05:09:49;-4.90;99.90
59311;DHT22;45078;51.654;21.250;2023-03-05T05:12:15;-4.90;99.90
59311;DHT22;45078;51.654;21.250;2023-03-05T05:14:41;-4.80;99.90
59311;DHT22;45078;51.654;21.250;2023-03-05T05:17:06;-4.80;99.90
59311;DHT22;45078;51.654;21.250;2023-03-05T05:19:33;-4.70;99.90
59311;DHT22;45078;51.654;21.250;2023-03-05T05:21:59;-4.60;99.90
59311;DHT22;45078;51.654;21.250;2023-03-05T05:24:26;-4.60;99.90
59311;DHT22;45078;51.654;21.250;2023-03-05T05:26:54;-4.60;99.90
59311;DHT22;45078;51.654;21.250;2023-03-05T05:29:21;-4.50;99.90
59311;DHT22;45078;51.654;21.250;2023-03-05T05:31:47;-4.40;99.90
59311;DHT22;45078;51.654;21.250;2023-03-05T05:34:14;-4.30;99.90
59311;DHT22;45078;51.654;21.250;2023-03-05T05:36:40;-4.30;99.90
59311;DHT22;45078;51.654;21.250;2023-03-05T05:39:06;-4.20;99.90
59311;DHT22;45078;51.654;21.250;2023-03-05T05:41:31;-4.20;99.90
59311;DHT22;45078;51.654;21.250;2023-03-05T05:43:57;-4.20;99.90
59311;DHT22;45078;51.654;21.250;2023-03-05T05:46:23;-4.10;99.90
59311;DHT22;45078;51.654;21.250;2023-03-05T05:48:49;-4.00;99.90
59311;DHT22;45078;51.654;21.250;2023-03-05T05:51:20;-3.90;99.90
59311;DHT22;45078;51.654;21.250;2023-03-05T05:53:47;-3.80;99.90
59311;DHT22;45078;51.654;21.250;2023-03-05T05:56:14;-3.80;99.90
59311;DHT22;45078;51.654;21.250;2023-03-05T05:58:41;-3.70;99.90
59311;DHT22;45078;51.654;21.250;2023-03-05T06:03:40;-3.40;99.90
59311;DHT22;45078;51.654;21.250;2023-03-05T06:06:11;-3.10;99.90
59311;DHT22;45078;51.654;21.250;2023-03-05T06:08:38;-2.80;99.90
59311;DHT22;45078;51.654;21.250;2023-03-05T06:11:04;-2.40;99.90
59311;DHT22;45078;51.654;21.250;2023-03-05T06:13:30;-1.60;99.90
59311;DHT22;45078;51.654;21.250;2023-03-05T06:15:57;-1.40;99.90
59311;DHT22;45078;51.654;21.250;2023-03-05T06:18:24;-1.40;99.90
59311;DHT22;45078;51.654;21.250;2023-03-05T06:20:54;-1.40;99.90
59311;DHT22;45078;51.654;21.250;2023-03-05T06:23:20;-1.40;99.90
59311;DHT22;45078;51.654;21.250;2023-03-05T06:25:46;-1.40;99.90
59311;DHT22;45078;51.654;21.250;2023-03-05T06:28:11;-1.30;99.90
59311;DHT22;45078;51.654;21.250;2023-03-05T06:30:37;-0.80;99.90
59311;DHT22;45078;51.654;21.250;2023-03-05T06:33:03;-0.40;99.90
59311;DHT22;45078;51.654;21.250;2023-03-05T06:35:29;-0.50;99.90
59311;DHT22;45078;51.654;21.250;2023-03-05T06:37:54;-0.50;99.90
59311;DHT22;45078;51.654;21.250;2023-03-05T06:40:20;-0.40;99.90
59311;DHT22;45078;51.654;21.250;2023-03-05T06:42:46;0.20;99.90
59311;DHT22;45078;51.654;21.250;2023-03-05T06:45:11;0.90;99.00
59311;DHT22;45078;51.654;21.250;2023-03-05T06:47:37;1.60;96.80
59311;DHT22;45078;51.654;21.250;2023-03-05T06:50:03;2.40;92.50
59311;DHT22;45078;51.654;21.250;2023-03-05T06:52:29;2.70;89.00
59311;DHT22;45078;51.654;21.250;2023-03-05T06:54:55;2.80;86.50
59311;DHT22;45078;51.654;21.250;2023-03-05T06:57:21;3.20;85.40
59311;DHT22;45078;51.654;21.250;2023-03-05T06:59:47;3.30;82.90
59311;DHT22;45078;51.654;21.250;2023-03-05T07:02:13;3.30;82.10
59311;DHT22;45078;51.654;21.250;2023-03-05T07:04:40;2.90;82.90
59311;DHT22;45078;51.654;21.250;2023-03-05T07:07:06;2.40;84.00
59311;DHT22;45078;51.654;21.250;2023-03-05T07:09:31;1.90;87.50
59311;DHT22;45078;51.654;21.250;2023-03-05T07:11:57;1.70;90.70
59311;DHT22;45078;51.654;21.250;2023-03-05T07:14:23;1.40;92.40
59311;DHT22;45078;51.654;21.250;2023-03-05T07:16:48;1.10;92.70
59311;DHT22;45078;51.654;21.250;2023-03-05T07:19:15;1.10;95.30
59311;DHT22;45078;51.654;21.250;2023-03-05T07:21:41;1.10;93.70
59311;DHT22;45078;51.654;21.250;2023-03-05T07:24:07;0.90;93.40
59311;DHT22;45078;51.654;21.250;2023-03-05T07:26:33;0.90;93.30
59311;DHT22;45078;51.654;21.250;2023-03-05T07:28:59;1.00;96.40
59311;DHT22;45078;51.654;21.250;2023-03-05T07:31:26;1.20;95.70
59311;DHT22;45078;51.654;21.250;2023-03-05T07:33:56;1.10;93.10
59311;DHT22;45078;51.654;21.250;2023-03-05T07:36:22;1.00;92.50
59311;DHT22;45078;51.654;21.250;2023-03-05T07:38:48;1.10;93.80
59311;DHT22;45078;51.654;21.250;2023-03-05T07:41:16;1.10;93.50
59311;DHT22;45078;51.654;21.250;2023-03-05T07:43:46;1.20;94.40
59311;DHT22;45078;51.654;21.250;2023-03-05T07:46:14;1.30;94.20
59311;DHT22;45078;51.654;21.250;2023-03-05T07:48:40;1.50;94.50
59311;DHT22;45078;51.654;21.250;2023-03-05T07:51:17;1.40;93.00
59311;DHT22;45078;51.654;21.250;2023-03-05T07:53:44;1.50;93.00
59311;DHT22;45078;51.654;21.250;2023-03-05T07:56:10;1.50;92.20
59311;DHT22;45078;51.654;21.250;2023-03-05T07:58:36;1.50;92.70
59311;DHT22;45078;51.654;21.250;2023-03-05T08:01:02;1.70;93.70
59311;DHT22;45078;51.654;21.250;2023-03-05T08:03:28;1.80;92.40
59311;DHT22;45078;51.654;21.250;2023-03-05T08:05:54;2.00;91.90
59311;DHT22;45078;51.654;21.250;2023-03-05T08:08:20;1.90;91.20
59311;DHT22;45078;51.654;21.250;2023-03-05T08:10:46;1.80;91.30
59311;DHT22;45078;51.654;21.250;2023-03-05T08:13:11;1.70;92.40
59311;DHT22;45078;51.654;21.250;2023-03-05T08:15:37;1.50;92.70
59311;DHT22;45078;51.654;21.250;2023-03-05T08:18:03;1.50;94.80
59311;DHT22;45078;51.654;21.250;2023-03-05T08:20:29;1.40;96.70
59311;DHT22;45078;51.654;21.250;2023-03-05T08:22:55;1.40;97.90
59311;DHT22;45078;51.654;21.250;2023-03-05T08:25:21;1.20;95.80
59311;DHT22;45078;51.654;21.250;2023-03-05T08:27:47;1.10;98.00
59311;DHT22;45078;51.654;21.250;2023-03-05T08:30:18;1.20;99.90
59311;DHT22;45078;51.654;21.250;2023-03-05T08:32:44;1.20;99.90
59311;DHT22;45078;51.654;21.250;2023-03-05T08:35:10;1.20;99.90
59311;DHT22;45078;51.654;21.250;2023-03-05T08:37:36;1.20;99.90
59311;DHT22;45078;51.654;21.250;2023-03-05T08:40:03;1.20;99.90
59311;DHT22;45078;51.654;21.250;2023-03-05T08:42:29;1.30;99.90
59311;DHT22;45078;51.654;21.250;2023-03-05T08:44:55;1.30;99.90
59311;DHT22;45078;51.654;21.250;2023-03-05T08:47:21;1.20;99.90
59311;DHT22;45078;51.654;21.250;2023-03-05T08:49:50;1.30;99.90
59311;DHT22;45078;51.654;21.250;2023-03-05T08:52:20;1.20;99.90
59311;DHT22;45078;51.654;21.250;2023-03-05T08:54:46;1.20;99.90
59311;DHT22;45078;51.654;21.250;2023-03-05T08:57:12;1.20;99.90
59311;DHT22;45078;51.654;21.250;2023-03-05T08:59:38;1.20;99.90
59311;DHT22;45078;51.654;21.250;2023-03-05T09:02:03;1.30;99.90
59311;DHT22;45078;51.654;21.250;2023-03-05T09:04:29;1.30;99.90
59311;DHT22;45078;51.654;21.250;2023-03-05T09:06:56;1.30;99.90
59311;DHT22;45078;51.654;21.250;2023-03-05T09:09:22;1.40;99.90
59311;DHT22;45078;51.654;21.250;2023-03-05T09:11:48;1.40;99.90
59311;DHT22;45078;51.654;21.250;2023-03-05T09:14:16;1.30;99.90
59311;DHT22;45078;51.654;21.250;2023-03-05T09:16:42;1.40;99.90
59311;DHT22;45078;51.654;21.250;2023-03-05T09:19:08;1.40;99.90
59311;DHT22;45078;51.654;21.250;2023-03-05T09:21:35;1.40;99.90
59311;DHT22;45078;51.654;21.250;2023-03-05T09:24:01;1.40;99.90
59311;DHT22;45078;51.654;21.250;2023-03-05T09:26:28;1.30;99.90
59311;DHT22;45078;51.654;21.250;2023-03-05T09:28:53;1.50;99.90
59311;DHT22;45078;51.654;21.250;2023-03-05T09:31:19;1.40;99.90
59311;DHT22;45078;51.654;21.250;2023-03-05T09:33:47;1.40;99.90
59311;DHT22;45078;51.654;21.250;2023-03-05T09:36:27;1.30;99.90
59311;DHT22;45078;51.654;21.250;2023-03-05T09:38:53;1.20;99.90
59311;DHT22;45078;51.654;21.250;2023-03-05T09:52:45;1.20;99.90
59311;DHT22;45078;51.654;21.250;2023-03-05T09:55:26;1.10;99.90
59311;DHT22;45078;51.654;21.250;2023-03-05T09:57:56;1.10;99.90
59311;DHT22;45078;51.654;21.250;2023-03-05T10:00:33;1.10;99.90
59311;DHT22;45078;51.654;21.250;2023-03-05T10:03:04;1.10;99.90
59311;DHT22;45078;51.654;21.250;2023-03-05T10:06:04;1.20;99.90
59311;DHT22;45078;51.654;21.250;2023-03-05T10:08:45;1.10;99.90
59311;DHT22;45078;51.654;21.250;2023-03-05T10:14:26;1.20;99.90
59311;DHT22;45078;51.654;21.250;2023-03-05T10:17:18;1.20;99.90
59311;DHT22;45078;51.654;21.250;2023-03-05T10:23:20;1.30;99.90
59311;DHT22;45078;51.654;21.250;2023-03-05T10:26:17;1.30;99.90
59311;DHT22;45078;51.654;21.250;2023-03-05T10:34:42;1.20;99.90
59311;DHT22;45078;51.654;21.250;2023-03-05T10:40:10;1.30;99.90
59311;DHT22;45078;51.654;21.250;2023-03-05T10:42:55;1.30;99.90
59311;DHT22;45078;51.654;21.250;2023-03-05T10:45:31;1.40;99.90
59311;DHT22;45078;51.654;21.250;2023-03-05T10:48:15;1.40;99.90
59311;DHT22;45078;51.654;21.250;2023-03-05T10:50:49;1.40;99.90
59311;DHT22;45078;51.654;21.250;2023-03-05T10:53:32;1.40;99.90
59311;DHT22;45078;51.654;21.250;2023-03-05T10:56:04;1.50;99.90
59311;DHT22;45078;51.654;21.250;2023-03-05T10:58:30;1.40;99.90
59311;DHT22;45078;51.654;21.250;2023-03-05T11:01:18;1.40;99.90
59311;DHT22;45078;51.654;21.250;2023-03-05T11:06:12;1.50;99.90
59311;DHT22;45078;51.654;21.250;2023-03-05T11:08:38;1.60;99.90
59311;DHT22;45078;51.654;21.250;2023-03-05T11:11:12;1.60;99.90
59311;DHT22;45078;51.654;21.250;2023-03-05T11:13:56;1.60;99.90
59311;DHT22;45078;51.654;21.250;2023-03-05T11:16:25;1.50;99.90
59311;DHT22;45078;51.654;21.250;2023-03-05T11:21:40;1.30;99.90
59311;DHT22;45078;51.654;21.250;2023-03-05T11:26:46;1.20;99.90
59311;DHT22;45078;51.654;21.250;2023-03-05T11:29:22;1.20;99.90
59311;DHT22;45078;51.654;21.250;2023-03-05T11:31:48;1.20;99.90
59311;DHT22;45078;51.654;21.250;2023-03-05T11:36:59;1.00;99.90
59311;DHT22;45078;51.654;21.250;2023-03-05T11:39:29;0.90;99.90
59311;DHT22;45078;51.654;21.250;2023-03-05T11:42:13;0.90;99.90
59311;DHT22;45078;51.654;21.250;2023-03-05T11:44:47;0.90;99.90
59311;DHT22;45078;51.654;21.250;2023-03-05T11:49:46;1.00;99.90
59311;DHT22;45078;51.654;21.250;2023-03-05T11:52:31;0.90;99.90
59311;DHT22;45078;51.654;21.250;2023-03-05T11:57:29;0.60;99.90
59311;DHT22;45078;51.654;21.250;2023-03-05T11:59:58;0.60;99.90
59311;DHT22;45078;51.654;21.250;2023-03-05T12:02:26;0.60;99.90
59311;DHT22;45078;51.654;21.250;2023-03-05T12:04:52;0.70;99.90
59311;DHT22;45078;51.654;21.250;2023-03-05T12:07:41;0.70;99.90
59311;DHT22;45078;51.654;21.250;2023-03-05T12:10:21;0.70;99.90
59311;DHT22;45078;51.654;21.250;2023-03-05T12:21:50;0.60;99.90
59311;DHT22;45078;51.654;21.250;2023-03-05T12:32:00;0.60;99.90
59311;DHT22;45078;51.654;21.250;2023-03-05T12:37:10;0.70;99.90
59311;DHT22;45078;51.654;21.250;2023-03-05T12:39:46;0.80;99.90
59311;DHT22;45078;51.654;21.250;2023-03-05T12:52:52;0.90;99.90
59311;DHT22;45078;51.654;21.250;2023-03-05T12:58:14;0.90;99.90
59311;DHT22;45078;51.654;21.250;2023-03-05T13:00:47;0.80;99.90
59311;DHT22;45078;51.654;21.250;2023-03-05T13:03:22;0.70;99.90
59311;DHT22;45078;51.654;21.250;2023-03-05T13:05:54;0.70;99.90
59311;DHT22;45078;51.654;21.250;2023-03-05T13:08:21;0.80;99.90
59311;DHT22;45078;51.654;21.250;2023-03-05T13:13:18;0.70;99.90
59311;DHT22;45078;51.654;21.250;2023-03-05T13:15:46;0.60;99.90
59311;DHT22;45078;51.654;21.250;2023-03-05T13:20:44;0.60;99.90
59311;DHT22;45078;51.654;21.250;2023-03-05T13:23:22;0.60;99.90
59311;DHT22;45078;51.654;21.250;2023-03-05T13:26:18;0.60;99.90
59311;DHT22;45078;51.654;21.250;2023-03-05T13:29:09;0.60;99.90
59311;DHT22;45078;51.654;21.250;2023-03-05T13:31:55;0.70;99.90
59311;DHT22;45078;51.654;21.250;2023-03-05T13:34:28;0.60;99.90
59311;DHT22;45078;51.654;21.250;2023-03-05T13:37:03;0.60;99.90
59311;DHT22;45078;51.654;21.250;2023-03-05T13:40:02;0.50;99.90
59311;DHT22;45078;51.654;21.250;2023-03-05T13:42:33;0.50;99.90
59311;DHT22;45078;51.654;21.250;2023-03-05T13:45:05;0.50;99.90
59311;DHT22;45078;51.654;21.250;2023-03-05T13:47:34;0.50;99.90
59311;DHT22;45078;51.654;21.250;2023-03-05T13:50:03;0.50;99.90
59311;DHT22;45078;51.654;21.250;2023-03-05T13:52:36;0.40;99.90
59311;DHT22;45078;51.654;21.250;2023-03-05T13:55:09;0.40;99.90
59311;DHT22;45078;51.654;21.250;2023-03-05T13:57:42;0.50;99.90
59311;DHT22;45078;51.654;21.250;2023-03-05T14:00:34;0.50;99.90
59311;DHT22;45078;51.654;21.250;2023-03-05T14:05:34;0.60;99.90
59311;DHT22;45078;51.654;21.250;2023-03-05T14:08:00;0.60;99.90
59311;DHT22;45078;51.654;21.250;2023-03-05T14:12:59;0.50;99.90
59311;DHT22;45078;51.654;21.250;2023-03-05T14:15:31;0.50;99.90
59311;DHT22;45078;51.654;21.250;2023-03-05T14:18:16;0.50;99.90
59311;DHT22;45078;51.654;21.250;2023-03-05T14:21:06;0.50;99.90
59311;DHT22;45078;51.654;21.250;2023-03-05T14:23:50;0.40;99.90
59311;DHT22;45078;51.654;21.250;2023-03-05T14:26:39;0.40;99.90
59311;DHT22;45078;51.654;21.250;2023-03-05T14:31:38;0.40;99.90
59311;DHT22;45078;51.654;21.250;2023-03-05T14:36:54;0.20;99.90
59311;DHT22;45078;51.654;21.250;2023-03-05T14:44:53;0.00;99.90
59311;DHT22;45078;51.654;21.250;2023-03-05T14:47:21;0.00;99.90
59311;DHT22;45078;51.654;21.250;2023-03-05T14:49:47;-0.10;99.90
59311;DHT22;45078;51.654;21.250;2023-03-05T14:52:16;-0.20;99.90
59311;DHT22;45078;51.654;21.250;2023-03-05T14:54:43;-0.30;99.90
59311;DHT22;45078;51.654;21.250;2023-03-05T14:57:18;-0.30;99.90
59311;DHT22;45078;51.654;21.250;2023-03-05T14:59:44;-0.30;99.90
59311;DHT22;45078;51.654;21.250;2023-03-05T15:02:17;-0.30;99.90
59311;DHT22;45078;51.654;21.250;2023-03-05T15:04:43;-0.40;99.90
59311;DHT22;45078;51.654;21.250;2023-03-05T15:07:35;-0.40;99.90
59311;DHT22;45078;51.654;21.250;2023-03-05T15:10:01;-0.40;99.90
59311;DHT22;45078;51.654;21.250;2023-03-05T15:12:27;-0.40;99.90
59311;DHT22;45078;51.654;21.250;2023-03-05T15:14:54;-0.30;99.90
59311;DHT22;45078;51.654;21.250;2023-03-05T15:17:36;-0.30;99.90
59311;DHT22;45078;51.654;21.250;2023-03-05T15:20:04;-0.30;99.90
59311;DHT22;45078;51.654;21.250;2023-03-05T15:22:35;-0.30;99.90
59311;DHT22;45078;51.654;21.250;2023-03-05T15:25:02;-0.30;99.90
59311;DHT22;45078;51.654;21.250;2023-03-05T15:27:28;-0.20;99.90
59311;DHT22;45078;51.654;21.250;2023-03-05T15:29:54;-0.30;99.90
59311;DHT22;45078;51.654;21.250;2023-03-05T15:32:20;-0.30;99.90
59311;DHT22;45078;51.654;21.250;2023-03-05T15:34:46;-0.30;99.90
59311;DHT22;45078;51.654;21.250;2023-03-05T15:37:12;-0.30;99.90
59311;DHT22;45078;51.654;21.250;2023-03-05T15:39:39;-0.30;99.90
59311;DHT22;45078;51.654;21.250;2023-03-05T15:42:05;-0.30;99.90
59311;DHT22;45078;51.654;21.250;2023-03-05T15:44:31;-0.30;99.90
59311;DHT22;45078;51.654;21.250;2023-03-05T15:46:57;-0.40;99.90
59311;DHT22;45078;51.654;21.250;2023-03-05T15:49:23;-0.40;99.90
59311;DHT22;45078;51.654;21.250;2023-03-05T15:51:50;-0.40;99.90
59311;DHT22;45078;51.654;21.250;2023-03-05T15:54:17;-0.50;99.90
59311;DHT22;45078;51.654;21.250;2023-03-05T15:56:43;-0.50;99.90
59311;DHT22;45078;51.654;21.250;2023-03-05T15:59:09;-0.50;99.90
59311;DHT22;45078;51.654;21.250;2023-03-05T16:01:36;-0.50;99.90
59311;DHT22;45078;51.654;21.250;2023-03-05T16:04:03;-0.50;99.90
59311;DHT22;45078;51.654;21.250;2023-03-05T16:06:30;-0.50;99.90
59311;DHT22;45078;51.654;21.250;2023-03-05T16:09:01;-0.50;99.90
59311;DHT22;45078;51.654;21.250;2023-03-05T16:11:30;-0.50;99.90
59311;DHT22;45078;51.654;21.250;2023-03-05T16:13:57;-0.50;99.90
59311;DHT22;45078;51.654;21.250;2023-03-05T16:16:28;-0.40;99.90
59311;DHT22;45078;51.654;21.250;2023-03-05T16:18:55;-0.50;99.90
59311;DHT22;45078;51.654;21.250;2023-03-05T16:21:22;-0.50;99.90
59311;DHT22;45078;51.654;21.250;2023-03-05T16:23:48;-0.60;99.90
59311;DHT22;45078;51.654;21.250;2023-03-05T16:26:15;-0.60;99.90
59311;DHT22;45078;51.654;21.250;2023-03-05T16:28:41;-0.60;99.90
59311;DHT22;45078;51.654;21.250;2023-03-05T16:31:07;-0.60;99.90
59311;DHT22;45078;51.654;21.250;2023-03-05T16:33:32;-0.50;99.90
59311;DHT22;45078;51.654;21.250;2023-03-05T16:36:17;-0.60;99.90
59311;DHT22;45078;51.654;21.250;2023-03-05T16:38:47;-0.50;99.90
59311;DHT22;45078;51.654;21.250;2023-03-05T16:41:16;-0.50;99.90
59311;DHT22;45078;51.654;21.250;2023-03-05T16:43:44;-0.60;99.90
59311;DHT22;45078;51.654;21.250;2023-03-05T16:46:11;-0.60;99.90
59311;DHT22;45078;51.654;21.250;2023-03-05T16:48:37;-0.70;99.90
59311;DHT22;45078;51.654;21.250;2023-03-05T16:51:04;-0.70;99.90
59311;DHT22;45078;51.654;21.250;2023-03-05T16:53:30;-0.80;99.90
59311;DHT22;45078;51.654;21.250;2023-03-05T16:55:57;-0.80;99.90
59311;DHT22;45078;51.654;21.250;2023-03-05T16:58:23;-0.80;99.90
59311;DHT22;45078;51.654;21.250;2023-03-05T17:00:49;-0.80;99.90
59311;DHT22;45078;51.654;21.250;2023-03-05T17:03:15;-0.90;99.90
59311;DHT22;45078;51.654;21.250;2023-03-05T17:05:41;-0.90;99.90
59311;DHT22;45078;51.654;21.250;2023-03-05T17:08:07;-1.00;99.90
59311;DHT22;45078;51.654;21.250;2023-03-05T17:10:33;-1.00;99.90
59311;DHT22;45078;51.654;21.250;2023-03-05T17:12:59;-1.00;99.90
59311;DHT22;45078;51.654;21.250;2023-03-05T17:15:25;-1.00;99.90
59311;DHT22;45078;51.654;21.250;2023-03-05T17:17:51;-1.00;99.90
59311;DHT22;45078;51.654;21.250;2023-03-05T17:20:17;-1.00;99.90